Time;durP1;ratioP1;P1;durP2;ratioP2;P2;SDS_P1;SDS_P2;PMS_P1;PMS_P2;Temp;Humidity;BMP_temperature;BMP_pressure;BME280_temperature;BME280_humidity;BME280_pressure;Samples;Min_cycle;Max_cycle;Signal;HPM_P1;HPM_P2
2024/01/17 12:10:57;;;;;;;8.70;6.60;;;;;;;11.50;44.42;101240.98;102354;1289;600139;-58
2024/01/17 12:13:25;;;;;;;10.10;6.70;;;;;;;11.68;45.73;101239.67;104233;1273;60914;-58
2024/01/17 12:15:54;;;;;;;8.50;6.40;;;;;;;11.81;44.75;101240.65;104283;1272;60400;-59
2024/01/17 12:18:23;;;;;;;10.90;6.70;;;;;;;11.89;44.34;101241.85;104452;1269;72004;-59
2024/01/17 12:20:54;;;;;;;12.40;6.70;;;;;;;11.94;43.47;101238.86;104395;1267;73635;-61
2024/01/17 12:23:24;;;;;;;10.50;6.60;;;;;;;11.98;43.35;101236.21;104599;1267;71587;-60
2024/01/17 12:25:55;;;;;;;10.70;7.10;;;;;;;12.03;43.02;101237.93;104388;1264;60463;-59
2024/01/17 12:28:24;;;;;;;9.90;7.10;;;;;;;12.11;43.12;101237.02;104505;1268;60536;-61
2024/01/17 12:31:02;;;;;;;8.80;7.20;;;;;;;12.19;42.75;101233.42;104625;1267;72979;-61
2024/01/17 12:33:34;;;;;;;10.40;7.00;;;;;;;12.28;41.80;101236.37;104607;1264;73169;-62
2024/01/17 12:36:04;;;;;;;8.60;6.50;;;;;;;12.34;41.35;101239.30;105075;1257;72495;-59
2024/01/17 12:38:34;;;;;;;10.20;7.30;;;;;;;12.41;41.13;101241.90;105036;1260;61917;-60
2024/01/17 12:41:05;;;;;;;8.40;6.50;;;;;;;12.50;41.08;101248.52;105207;1256;59593;-61
2024/01/17 12:43:34;;;;;;;8.20;6.50;;;;;;;12.58;40.86;101243.52;104798;1266;73127;-62
2024/01/17 12:46:02;;;;;;;12.10;7.60;;;;;;;12.66;40.23;101239.40;104945;1258;72317;-63
2024/01/17 12:48:30;;;;;;;10.40;7.60;;;;;;;12.72;39.90;101235.30;104870;1260;72123;-63
2024/01/17 12:51:01;;;;;;;9.50;7.10;;;;;;;12.76;39.79;101234.39;105055;1257;60139;-61
2024/01/17 12:53:29;;;;;;;8.80;7.40;;;;;;;12.84;39.94;101231.66;105104;1260;59874;-60
2024/01/17 12:56:00;;;;;;;9.00;7.20;;;;;;;12.94;39.52;101229.82;105027;1260;72918;-60
2024/01/17 12:58:29;;;;;;;9.50;6.80;;;;;;;13.00;39.42;101233.27;105033;1256;73019;-60
2024/01/17 13:00:59;;;;;;;9.20;7.00;;;;;;;13.07;39.11;101237.44;105093;1256;73085;-61
2024/01/17 13:03:27;;;;;;;9.00;6.80;;;;;;;13.12;38.83;101232.98;105193;1260;60734;-62
2024/01/17 13:06:08;;;;;;;8.30;7.00;;;;;;;13.16;38.48;101241.03;104871;1264;60010;-62
2024/01/17 13:08:39;;;;;;;10.90;7.60;;;;;;;13.21;38.49;101240.98;105070;1260;72907;-60
2024/01/17 13:11:18;;;;;;;11.00;7.40;;;;;;;13.26;38.25;101241.10;105035;1257;72474;-60
2024/01/17 13:13:47;;;;;;;7.90;6.30;;;;;;;13.29;38.20;101243.73;104979;1258;73242;-62
2024/01/17 13:16:16;;;;;;;7.40;6.10;;;;;;;13.32;37.84;101245.61;105122;1256;60475;-60
2024/01/17 13:18:44;;;;;;;8.00;6.50;;;;;;;13.34;37.59;101245.96;104982;1260;60505;-60
2024/01/17 13:21:17;;;;;;;9.60;6.80;;;;;;;13.35;37.57;101243.85;105047;1263;74329;-60
2024/01/17 13:23:45;;;;;;;8.40;6.90;;;;;;;13.36;37.48;101236.96;105202;1257;72343;-63
2024/01/17 13:26:13;;;;;;;8.40;6.50;;;;;;;13.38;37.20;101235.02;104995;1264;72011;-62
2024/01/17 13:28:41;;;;;;;7.90;6.60;;;;;;;13.38;37.08;101234.84;104756;1258;60676;-64
2024/01/17 13:31:09;;;;;;;9.00;6.50;;;;;;;13.36;37.02;101233.62;105011;1260;62065;-65
2024/01/17 13:33:37;;;;;;;9.30;5.80;;;;;;;13.34;37.03;101232.05;104995;1257;73802;-65
2024/01/17 13:36:06;;;;;;;7.10;6.10;;;;;;;13.31;36.78;101231.35;105022;1258;73254;-66
2024/01/17 13:38:35;;;;;;;7.70;6.20;;;;;;;13.29;36.86;101226.79;105124;1260;73186;-68
2024/01/17 13:41:03;;;;;;;7.60;5.90;;;;;;;13.27;36.66;101224.88;104924;1263;59787;-65
2024/01/17 13:43:32;;;;;;;8.20;5.90;;;;;;;13.26;36.28;101223.84;104782;1264;61559;-65
2024/01/17 13:46:00;;;;;;;9.40;6.00;;;;;;;13.21;36.44;101221.42;104986;1263;72970;-66
2024/01/17 13:48:28;;;;;;;7.40;5.40;;;;;;;13.17;36.30;101223.76;104836;1260;72478;-71
2024/01/17 13:50:56;;;;;;;8.60;5.70;;;;;;;13.11;36.25;101228.41;105312;1257;73265;-63
2024/01/17 13:53:32;;;;;;;8.40;5.70;;;;;;;13.01;36.51;101223.92;105061;1254;61486;-65
2024/01/17 13:56:04;;;;;;;8.20;5.60;;;;;;;12.92;36.74;101225.96;105401;1259;60658;-65
2024/01/17 13:58:34;;;;;;;5.40;4.40;;;;;;;12.81;36.60;101224.13;105114;1254;72983;-66
2024/01/17 14:01:04;;;;;;;6.20;4.80;;;;;;;12.70;36.60;101224.94;105004;1254;73778;-71
2024/01/17 14:06:53;;;;;;;5.40;3.90;;;;;;;12.51;36.45;101219.83;102241;1296;601030;-61
2024/01/17 14:09:23;;;;;;;6.80;4.50;;;;;;;12.40;36.54;101209.54;104277;1268;59953;-69
2024/01/17 14:11:54;;;;;;;;;;;;;;;12.32;36.58;101212.59;104424;1271;60327;-64
2024/01/17 14:14:22;;;;;;;4.20;3.30;;;;;;;12.26;36.42;101215.45;105167;1254;72562;-67
2024/01/17 14:16:50;;;;;;;5.90;3.30;;;;;;;12.16;36.05;101214.81;105103;1259;71985;-65
2024/01/17 14:19:19;;;;;;;3.30;3.00;;;;;;;12.01;35.89;101214.39;104671;1254;71554;-61
2024/01/17 14:21:47;;;;;;;12.80;4.50;;;;;;;11.81;36.24;101216.23;105126;1257;59537;-67
2024/01/17 14:24:15;;;;;;;8.10;3.10;;;;;;;11.72;46.74;101219.09;105224;1254;62190;-67
2024/01/17 14:26:43;;;;;;;5.50;3.20;;;;;;;11.74;45.34;101223.48;105282;1254;72654;-67
2024/01/17 14:29:11;;;;;;;5.10;3.40;;;;;;;11.61;44.38;101223.02;105098;1258;73783;-66
2024/01/17 14:31:38;;;;;;;4.70;3.20;;;;;;;11.44;42.93;101220.63;104974;1257;72976;-65
2024/01/17 14:34:09;;;;;;;3.00;2.60;;;;;;;11.23;41.76;101213.33;105264;1257;59605;-64
2024/01/17 14:36:38;;;;;;;4.30;2.50;;;;;;;11.02;40.95;101214.25;105126;1260;60292;-65
2024/01/17 14:39:08;;;;;;;3.70;2.60;;;;;;;10.81;40.59;101223.42;105177;1254;72717;-63
2024/01/17 14:41:36;;;;;;;4.00;2.60;;;;;;;10.61;40.18;101230.27;105331;1254;73574;-64
2024/01/17 14:44:04;;;;;;;3.30;2.40;;;;;;;10.43;39.95;101228.70;104982;1260;73756;-67
2024/01/17 14:46:33;;;;;;;3.00;2.20;;;;;;;10.26;39.82;101225.33;105161;1253;59666;-65
2024/01/17 14:49:01;;;;;;;2.80;2.10;;;;;;;10.11;39.69;101225.48;105086;1254;60008;-61
2024/01/17 14:51:29;;;;;;;3.40;2.40;;;;;;;9.97;39.80;101221.95;105367;1254;73473;-62
2024/01/17 14:53:57;;;;;;;2.30;2.00;;;;;;;9.87;39.88;101225.60;105338;1257;73316;-66
2024/01/17 14:56:25;;;;;;;2.50;2.10;;;;;;;9.78;39.92;101229.44;105000;1257;72440;-66
2024/01/17 14:58:53;;;;;;;2.60;2.00;;;;;;;9.67;39.96;101230.45;105249;1254;59926;-66
2024/01/17 15:01:21;;;;;;;5.60;3.00;;;;;;;9.57;40.17;101229.89;104860;1254;59845;-63
2024/01/17 15:03:48;;;;;;;3.80;3.10;;;;;;;9.49;40.21;101226.36;105035;1254;73419;-61
2024/01/17 15:06:20;;;;;;;3.10;2.30;;;;;;;9.40;40.50;101226.67;104956;1254;73733;-63
2024/01/17 15:08:48;;;;;;;3.00;2.40;;;;;;;9.31;40.41;101229.77;105197;1254;72654;-61
2024/01/17 15:11:16;;;;;;;4.10;2.40;;;;;;;9.23;40.58;101227.28;105205;1254;62776;-62
2024/01/17 15:13:44;;;;;;;3.30;2.20;;;;;;;9.12;40.66;101219.52;105177;1256;60310;-61
2024/01/17 15:16:22;;;;;;;3.30;1.90;;;;;;;9.02;40.96;101210.71;105207;1257;73135;-66
2024/01/17 15:18:50;;;;;;;3.80;2.10;;;;;;;8.92;40.96;101198.23;105123;1254;73236;-66
2024/01/17 15:21:19;;;;;;;2.40;1.70;;;;;;;8.84;41.14;101197.48;104937;1252;74373;-73
2024/01/17 15:23:47;;;;;;;2.30;1.70;;;;;;;8.74;41.51;101202.50;105504;1254;59807;-70
2024/01/17 15:26:15;;;;;;;2.80;2.30;;;;;;;8.70;41.77;101199.83;105296;1255;59801;-67
2024/01/17 15:28:43;;;;;;;3.40;2.10;;;;;;;8.65;41.97;101196.14;105361;1254;73371;-68
2024/01/17 15:31:11;;;;;;;3.10;2.00;;;;;;;8.57;42.32;101192.40;105440;1254;71951;-73
2024/01/17 15:33:39;;;;;;;2.90;2.30;;;;;;;8.49;42.63;101197.59;105213;1254;72289;-65
2024/01/17 15:36:07;;;;;;;2.50;2.30;;;;;;;8.41;42.83;101199.42;105221;1254;61148;-74
2024/01/17 15:38:43;;;;;;;4.30;2.20;;;;;;;8.34;43.13;101199.70;105299;1252;61978;-66
2024/01/17 15:41:13;;;;;;;2.10;1.90;;;;;;;8.26;43.60;101202.63;105471;1257;73962;-67
2024/01/17 15:43:41;;;;;;;3.00;2.60;;;;;;;8.24;43.89;101199.80;105400;1255;74146;-64
2024/01/17 15:46:11;;;;;;;2.80;1.80;;;;;;;8.18;44.27;101194.14;105365;1252;72125;-63
2024/01/17 15:52:04;;;;;;;2.50;2.20;;;;;;;8.24;44.86;101192.45;102280;1292;600633;-76
2024/01/17 15:54:33;;;;;;;3.10;2.20;;;;;;;8.21;45.12;101194.16;104431;1267;60380;-67
2024/01/17 15:57:01;;;;;;;2.30;1.90;;;;;;;8.21;45.15;101193.66;104604;1267;59628;-64
2024/01/17 15:59:29;;;;;;;3.90;2.50;;;;;;;8.25;45.37;101193.16;104420;1267;72983;-69
2024/01/17 16:01:57;;;;;;;4.10;2.70;;;;;;;8.31;45.50;101197.76;104336;1267;72509;-68
2024/01/17 16:04:24;;;;;;;3.10;2.40;;;;;;;8.34;45.69;101202.85;104292;1272;73106;-66
2024/01/17 16:06:52;;;;;;;3.70;2.60;;;;;;;8.35;45.85;101200.94;104344;1267;325577;-68
2024/01/17 16:09:20;;;;;;;3.80;2.70;;;;;;;8.39;46.07;101198.54;104566;1264;59851;-67
2024/01/17 16:11:52;;;;;;;3.70;2.30;;;;;;;8.44;46.10;101202.63;104528;1269;72606;-61
2024/01/17 16:14:20;;;;;;;3.30;2.40;;;;;;;8.44;46.21;101200.68;104631;1269;73060;-60
2024/01/17 16:16:49;;;;;;;4.00;2.20;;;;;;;8.40;46.19;101192.07;104255;1272;72424;-73
2024/01/17 16:19:18;;;;;;;2.70;2.00;;;;;;;8.37;46.30;101198.34;104550;1264;59691;-68
2024/01/17 16:21:55;;;;;;;4.80;2.20;;;;;;;8.36;46.55;101195.71;104650;1266;62129;-66
2024/01/17 16:24:42;;;;;;;5.20;2.80;;;;;;;8.43;48.68;101192.10;102205;1295;600164;-60
2024/01/17 16:27:10;;;;;;;4.40;3.00;;;;;;;8.51;50.10;101199.52;104377;1273;59539;-63
2024/01/17 16:29:39;;;;;;;4.00;2.50;;;;;;;8.53;50.32;101187.83;103993;1267;59980;-64
2024/01/17 16:32:07;;;;;;;4.00;2.70;;;;;;;8.56;49.83;101187.15;103981;1268;72280;-61
2024/01/17 16:34:39;;;;;;;3.90;2.50;;;;;;;8.54;49.32;101186.77;104239;1267;73056;-60
2024/01/17 16:37:07;;;;;;;3.10;2.30;;;;;;;8.52;49.16;101179.60;104372;1271;73938;-61
2024/01/17 16:39:35;;;;;;;3.80;2.80;;;;;;;8.53;48.95;101172.63;104301;1265;59463;-62
2024/01/17 16:42:04;;;;;;;4.10;2.50;;;;;;;8.53;48.72;101172.96;104642;1264;62501;-60
2024/01/17 16:44:32;;;;;;;3.90;2.90;;;;;;;8.55;48.72;101173.32;104667;1261;72538;-61
2024/01/17 16:47:01;;;;;;;4.40;2.90;;;;;;;8.60;48.71;101174.77;104787;1263;73619;-63
2024/01/17 16:49:29;;;;;;;3.10;2.20;;;;;;;8.66;48.67;101174.63;104780;1261;73596;-61
2024/01/17 16:51:57;;;;;;;4.50;2.40;;;;;;;8.66;48.91;101170.42;104944;1258;61155;-61
2024/01/17 16:54:25;;;;;;;3.40;2.50;;;;;;;8.67;49.27;101160.11;104918;1257;59811;-60
2024/01/17 16:56:54;;;;;;;4.00;2.80;;;;;;;8.70;49.60;101156.64;104983;1259;73813;-60
2024/01/17 16:59:21;;;;;;;3.30;2.60;;;;;;;8.72;49.80;101154.73;105082;1257;73376;-58
2024/01/17 17:01:49;;;;;;;3.20;2.60;;;;;;;8.76;49.99;101153.19;105063;1256;73013;-60
2024/01/17 17:04:20;;;;;;;2.80;2.50;;;;;;;8.81;50.12;101153.03;105002;1257;59749;-60
2024/01/17 17:06:48;;;;;;;4.80;2.90;;;;;;;8.85;50.26;101156.73;105057;1255;61107;-61
2024/01/17 17:09:16;;;;;;;3.30;2.50;;;;;;;8.88;50.35;101155.17;105111;1261;75604;-62
2024/01/17 17:11:44;;;;;;;3.50;2.60;;;;;;;8.91;50.56;101161.31;105081;1257;73254;-62
2024/01/17 17:14:12;;;;;;;3.90;3.60;;;;;;;8.92;50.61;101168.50;105006;1263;71874;-59
2024/01/17 17:16:40;;;;;;;4.50;2.70;;;;;;;8.93;50.72;101165.69;104910;1255;60878;-61
2024/01/17 17:19:10;;;;;;;3.40;2.60;;;;;;;8.92;50.83;101167.98;104888;1260;60011;-63
2024/01/17 17:21:38;;;;;;;3.20;2.70;;;;;;;8.94;50.95;101164.65;104976;1259;73998;-66
2024/01/17 17:24:06;;;;;;;3.30;2.40;;;;;;;8.94;51.01;101158.88;104971;1263;73816;-61
2024/01/17 17:26:42;;;;;;;4.20;3.10;;;;;;;8.91;51.15;101160.27;104900;1259;71955;-62
2024/01/17 17:29:11;;;;;;;3.40;2.40;;;;;;;8.85;51.36;101160.23;104880;1257;59739;-60
2024/01/17 17:31:41;;;;;;;3.10;2.60;;;;;;;8.81;51.62;101161.42;104698;1260;62518;-65
2024/01/17 17:34:09;;;;;;;4.40;2.90;;;;;;;8.76;51.81;101154.77;105181;1260;74007;-63
2024/01/17 17:36:37;;;;;;;3.80;2.60;;;;;;;8.74;51.98;101153.52;105005;1257;72277;-65
2024/01/17 17:39:05;;;;;;;6.40;3.70;;;;;;;8.72;52.10;101149.13;104840;1260;73267;-61
2024/01/17 17:41:35;;;;;;;3.80;2.80;;;;;;;8.74;52.29;101148.10;105461;1258;60139;-62
2024/01/17 17:44:03;;;;;;;5.20;3.10;;;;;;;8.78;52.42;101149.00;104864;1254;60548;-63
2024/01/17 17:46:31;;;;;;;3.00;2.50;;;;;;;8.81;52.40;101142.54;105066;1254;71942;-61
2024/01/17 17:48:58;;;;;;;4.40;2.70;;;;;;;8.85;52.46;101141.16;104497;1263;74704;-62
2024/01/17 17:51:26;;;;;;;5.00;2.80;;;;;;;8.85;52.52;101139.77;104945;1257;72375;-61
2024/01/17 17:53:58;;;;;;;6.50;2.90;;;;;;;8.86;52.55;101147.46;105031;1260;59634;-62
2024/01/17 17:56:27;;;;;;;4.60;2.70;;;;;;;8.86;52.65;101143.26;105209;1257;59823;-64
2024/01/17 17:58:55;;;;;;;6.80;2.80;;;;;;;8.87;52.67;101144.32;104858;1256;72373;-62
2024/01/17 18:01:23;;;;;;;5.10;2.80;;;;;;;8.89;52.76;101142.06;104907;1259;71824;-59
2024/01/17 18:03:51;;;;;;;4.60;2.70;;;;;;;8.89;52.80;101142.58;104796;1260;72670;-57
2024/01/17 18:06:20;;;;;;;3.10;2.40;;;;;;;8.87;52.88;101142.74;104857;1259;61055;-62
2024/01/17 18:08:48;;;;;;;6.20;2.30;;;;;;;8.87;53.09;101143.10;104883;1258;61415;-61
2024/01/17 18:11:16;;;;;;;3.90;2.60;;;;;;;8.91;53.08;101143.98;104802;1256;72907;-63
2024/01/17 18:13:45;;;;;;;3.20;2.50;;;;;;;8.92;53.05;101145.75;104829;1257;73467;-61
2024/01/17 18:16:23;;;;;;;3.60;3.00;;;;;;;8.92;53.20;101149.25;104818;1257;73997;-63
2024/01/17 18:18:56;;;;;;;3.50;2.30;;;;;;;8.87;53.32;101146.77;104982;1257;59708;-61
2024/01/17 18:21:24;;;;;;;4.20;2.50;;;;;;;8.81;53.49;101138.16;105188;1258;59516;-61
2024/01/17 18:23:54;;;;;;;5.40;2.60;;;;;;;8.80;53.41;101135.89;104953;1257;73063;-67
2024/01/17 18:26:22;;;;;;;4.40;2.60;;;;;;;8.84;53.47;101127.86;105230;1255;74703;-63
2024/01/17 18:28:50;;;;;;;2.70;2.00;;;;;;;8.87;53.32;101126.83;105205;1257;73163;-63
2024/01/17 18:31:18;;;;;;;4.70;2.40;;;;;;;8.91;53.36;101126.67;104829;1254;60783;-64
2024/01/17 18:33:46;;;;;;;4.50;2.40;;;;;;;8.94;53.27;101128.77;104896;1257;60431;-62
2024/01/17 18:36:13;;;;;;;5.00;2.20;;;;;;;8.97;53.19;101127.92;104879;1255;71684;-59
2024/01/17 18:38:41;;;;;;;3.10;2.20;;;;;;;8.97;53.16;101127.41;104790;1257;72614;-63
2024/01/17 18:41:10;;;;;;;5.40;2.90;;;;;;;8.95;53.23;101123.89;104727;1258;72457;-59
2024/01/17 18:43:39;;;;;;;3.50;2.20;;;;;;;8.94;53.34;101120.92;106355;1256;59604;-65
2024/01/17 18:46:10;;;;;;;3.60;2.30;;;;;;;8.94;53.60;101109.55;104927;1257;59644;-61
2024/01/17 18:48:38;;;;;;;5.30;2.10;;;;;;;8.99;53.78;101107.98;105054;1257;73297;-62
2024/01/17 18:51:06;;;;;;;3.60;2.20;;;;;;;9.05;53.79;101103.46;104753;1258;71900;-60
2024/01/17 18:53:35;;;;;;;3.80;2.50;;;;;;;9.11;53.92;101099.29;104793;1257;74080;-61
2024/01/17 18:56:03;;;;;;;4.00;2.80;;;;;;;9.18;53.92;101093.00;106021;1261;59582;-61
2024/01/17 18:58:31;;;;;;;3.20;2.40;;;;;;;9.20;53.89;101082.16;104881;1257;60541;-58
2024/01/17 19:00:59;;;;;;;4.20;2.40;;;;;;;9.19;54.04;101085.84;104562;1264;72797;-62
2024/01/17 19:03:29;;;;;;;3.30;2.20;;;;;;;9.23;54.08;101091.44;104428;1270;74649;-61
2024/01/17 19:05:57;;;;;;;4.10;2.20;;;;;;;9.28;54.12;101080.62;105021;1257;73485;-63
2024/01/17 19:08:28;;;;;;;7.30;3.50;;;;;;;9.32;54.16;101066.80;105027;1259;59758;-61
2024/01/17 19:10:56;;;;;;;4.80;2.40;;;;;;;9.35;54.14;101050.69;104882;1255;59746;-65
2024/01/17 19:13:23;;;;;;;2.90;2.10;;;;;;;9.38;54.20;101043.16;105076;1259;73320;-62
2024/01/17 19:15:51;;;;;;;3.50;2.50;;;;;;;9.40;54.25;101030.92;105063;1253;73189;-64
2024/01/17 19:18:19;;;;;;;2.70;2.10;;;;;;;9.43;54.22;101027.42;105056;1257;73363;-60
2024/01/17 19:20:50;;;;;;;5.00;2.70;;;;;;;9.45;54.27;101017.27;104935;1254;62450;-62
2024/01/17 19:23:19;;;;;;;5.20;2.10;;;;;;;9.46;54.32;101009.04;105251;1257;59698;-62
2024/01/17 19:25:47;;;;;;;4.40;2.70;;;;;;;9.49;54.36;101007.80;105044;1258;73773;-61
2024/01/17 19:28:17;;;;;;;4.70;3.00;;;;;;;9.50;54.41;101011.50;104975;1259;71772;-61
2024/01/17 19:30:45;;;;;;;4.70;2.50;;;;;;;9.49;54.42;101015.69;104957;1256;75157;-62
2024/01/17 19:33:13;;;;;;;3.70;2.60;;;;;;;9.48;54.51;101022.51;105177;1257;59631;-61
2024/01/17 19:35:42;;;;;;;4.20;2.40;;;;;;;9.50;54.56;101022.53;105069;1260;59839;-61
2024/01/17 19:38:10;;;;;;;3.90;2.50;;;;;;;9.51;54.64;101024.27;105016;1254;73596;-60
2024/01/17 19:40:40;;;;;;;3.20;2.50;;;;;;;9.51;54.72;101020.42;104975;1253;73292;-60
2024/01/17 19:43:08;;;;;;;3.60;2.50;;;;;;;9.52;54.81;101026.04;105160;1257;73010;-60
2024/01/17 19:45:38;;;;;;;4.70;2.60;;;;;;;9.54;54.92;101027.79;104901;1258;60139;-60
2024/01/17 19:48:06;;;;;;;5.20;2.60;;;;;;;9.56;54.86;101021.99;105071;1260;60443;-63
2024/01/17 19:50:34;;;;;;;3.80;2.30;;;;;;;9.58;54.94;101014.12;105132;1258;73948;-61
2024/01/17 19:53:02;;;;;;;4.90;2.60;;;;;;;9.60;55.03;101012.55;104837;1254;73778;-64
2024/01/17 19:55:30;;;;;;;7.30;3.30;;;;;;;9.61;55.01;101015.88;105415;1257;74163;-62
2024/01/17 19:57:58;;;;;;;3.80;2.50;;;;;;;9.61;55.13;101003.77;105114;1257;59606;-63
2024/01/17 20:00:31;;;;;;;4.10;2.70;;;;;;;9.59;55.20;101005.02;105001;1257;59723;-61
2024/01/17 20:02:59;;;;;;;3.10;2.30;;;;;;;9.58;55.34;101002.21;105073;1255;73138;-61
2024/01/17 20:05:26;;;;;;;5.50;2.80;;;;;;;9.59;55.38;101005.89;105091;1256;72472;-60
2024/01/17 20:07:55;;;;;;;5.10;2.90;;;;;;;9.61;55.46;101005.71;105162;1254;74059;-60
2024/01/17 20:10:26;;;;;;;11.70;3.20;;;;;;;9.62;55.67;101010.08;104754;1261;62454;-68
2024/01/17 20:12:59;;;;;;;5.30;3.20;;;;;;;9.64;59.28;101010.79;105608;1258;59749;-61
2024/01/17 20:15:28;;;;;;;8.20;2.80;;;;;;;9.71;60.43;101003.44;109024;1256;72621;-63
2024/01/17 20:17:56;;;;;;;5.50;3.00;;;;;;;9.72;60.59;101004.14;109195;1254;72020;-61
2024/01/17 20:20:26;;;;;;;4.10;2.50;;;;;;;9.72;60.55;101000.46;108868;1254;73842;-61
2024/01/17 20:22:58;;;;;;;4.60;3.10;;;;;;;9.71;60.19;100998.35;106251;1254;60913;-60
2024/01/17 20:25:26;;;;;;;6.70;2.50;;;;;;;9.67;59.80;100994.16;105502;1262;62632;-60
2024/01/17 20:27:54;;;;;;;5.40;2.20;;;;;;;9.65;59.61;100996.44;104934;1261;73516;-60
2024/01/17 20:30:21;;;;;;;6.80;2.90;;;;;;;9.64;59.34;100992.91;104735;1254;73780;-61
2024/01/17 20:32:49;;;;;;;3.70;2.60;;;;;;;9.63;59.20;100991.52;104972;1258;72756;-60
2024/01/17 20:35:18;;;;;;;3.90;2.50;;;;;;;9.63;58.98;100992.73;105161;1257;60672;-63
2024/01/17 20:37:46;;;;;;;4.10;2.40;;;;;;;9.63;58.93;100989.59;104965;1260;60617;-62
2024/01/17 20:40:14;;;;;;;5.90;2.80;;;;;;;9.61;58.69;100984.34;105122;1259;73683;-66
2024/01/17 20:42:42;;;;;;;10.30;4.50;;;;;;;9.59;58.58;100983.29;105109;1258;74853;-63
2024/01/17 20:45:10;;;;;;;24.20;8.00;;;;;;;9.66;64.63;100987.67;105053;1257;73230;-66
2024/01/17 20:47:39;;;;;;;19.20;5.30;;;;;;;10.23;71.29;100985.48;105192;1261;62756;-64
2024/01/17 20:50:07;;;;;;;15.60;4.50;;;;;;;10.60;71.77;100983.10;105156;1256;60559;-65
2024/01/17 20:52:36;;;;;;;11.80;4.80;;;;;;;10.66;71.91;100978.70;105098;1256;74326;-60
2024/01/17 20:55:05;;;;;;;10.20;3.60;;;;;;;10.64;71.93;100980.98;105175;1256;73523;-69
2024/01/17 20:57:32;;;;;;;8.90;3.50;;;;;;;10.61;71.64;100977.84;105394;1258;73464;-70
2024/01/17 21:00:04;;;;;;;9.00;3.20;;;;;;;10.57;71.22;100972.06;105031;1257;60526;-70
2024/01/17 21:02:32;;;;;;;;;;;;;;;10.53;70.61;100970.85;109152;1256;61016;-65
2024/01/17 21:05:00;;;;;;;7.70;3.30;;;;;;;10.52;70.32;100968.94;109158;1256;72929;-69
2024/01/17 21:07:27;;;;;;;6.70;2.80;;;;;;;10.50;69.31;100966.84;109246;1255;71866;-69
2024/01/17 21:09:55;;;;;;;4.40;2.80;;;;;;;10.45;68.60;100960.37;109148;1256;72784;-74
2024/01/17 21:12:23;;;;;;;40.10;14.70;;;;;;;10.39;67.95;100957.58;109236;1254;59205;-64
2024/01/17 21:14:50;;;;;;;34.50;13.30;;;;;;;10.49;71.55;100957.90;109251;1254;60050;-66
2024/01/17 21:17:20;;;;;;;34.10;11.60;;;;;;;10.81;73.96;100962.47;109253;1255;74241;-65
2024/01/17 21:19:49;;;;;;;29.10;9.90;;;;;;;10.90;73.82;100964.00;109250;1256;72909;-69
2024/01/17 21:22:17;;;;;;;21.30;7.60;;;;;;;10.89;73.69;100960.31;109183;1254;71914;-68
2024/01/17 21:24:45;;;;;;;17.80;6.10;;;;;;;10.86;73.05;100955.78;109168;1254;60112;-71
2024/01/17 21:27:13;;;;;;;13.30;5.20;;;;;;;10.82;72.58;100954.05;109264;1255;59294;-71
2024/01/17 21:29:41;;;;;;;12.20;4.20;;;;;;;10.79;71.98;100951.95;108982;1255;71947;-71
2024/01/17 21:32:08;;;;;;;66.60;18.00;;;;;;;10.79;72.50;100949.86;109252;1256;71597;-62
2024/01/17 21:34:36;;;;;;;49.50;16.10;;;;;;;11.10;77.79;100945.09;109218;1254;71427;-65
2024/01/17 21:37:08;;;;;;;33.30;9.20;;;;;;;11.69;80.80;100943.36;109212;1255;60447;-67
2024/01/17 21:39:36;;;;;;;32.90;8.80;;;;;;;12.16;80.97;100938.17;109023;1255;58942;-63
2024/01/17 21:42:04;;;;;;;31.30;9.10;;;;;;;12.38;80.86;100927.17;109235;1255;73901;-65
2024/01/17 21:44:31;;;;;;;34.40;10.80;;;;;;;12.63;80.70;100924.04;109245;1255;71596;-64
2024/01/17 21:46:59;;;;;;;25.50;10.20;;;;;;;12.88;80.12;100913.30;109217;1255;72798;-64
2024/01/17 21:49:28;;;;;;;30.80;9.90;;;;;;;13.07;79.49;100913.20;109161;1255;60595;-62
2024/01/17 21:51:58;;;;;;;25.70;7.90;;;;;;;13.25;78.76;100906.91;109272;1255;59112;-64
2024/01/17 21:54:27;;;;;;;31.70;8.80;;;;;;;13.37;77.51;100905.52;109244;1255;72579;-64
2024/01/17 21:56:54;;;;;;;24.00;7.50;;;;;;;13.46;76.81;100893.21;109278;1254;72848;-60
2024/01/17 21:59:22;;;;;;;18.90;6.00;;;;;;;13.53;76.04;100884.45;109230;1256;73117;-63
2024/01/17 22:01:50;;;;;;;14.20;4.40;;;;;;;13.46;74.77;100879.45;109272;1255;61741;-67
2024/01/17 22:04:17;;;;;;;12.60;5.70;;;;;;;13.29;73.84;100872.68;109161;1255;60101;-65
2024/01/17 22:06:45;;;;;;;12.60;4.90;;;;;;;13.09;73.38;100868.08;109283;1256;72648;-69
2024/01/17 22:09:12;;;;;;;9.20;4.00;;;;;;;12.92;72.79;100863.61;109055;1255;71622;-64
2024/01/17 22:11:40;;;;;;;9.20;3.00;;;;;;;12.75;72.18;100860.33;109158;1254;72729;-65
2024/01/17 22:14:08;;;;;;;10.40;3.80;;;;;;;12.61;71.99;100862.48;108977;1254;60508;-63
2024/01/17 22:16:36;;;;;;;8.90;3.30;;;;;;;12.51;71.61;100852.42;108993;1256;60562;-62
2024/01/17 22:19:06;;;;;;;7.70;2.70;;;;;;;12.42;71.22;100843.76;109262;1255;74024;-64
2024/01/17 22:21:34;;;;;;;6.60;2.70;;;;;;;12.31;70.82;100842.49;109204;1254;71747;-61
2024/01/17 22:24:02;;;;;;;7.60;2.90;;;;;;;12.22;70.52;100842.61;109180;1254;70283;-61
2024/01/17 22:26:31;;;;;;;5.80;2.40;;;;;;;12.14;70.09;100844.48;109140;1256;60408;-63
2024/01/17 22:28:58;;;;;;;19.00;4.30;;;;;;;12.06;69.58;100848.97;109307;1255;58819;-60
2024/01/17 22:31:26;;;;;;;26.80;6.60;;;;;;;12.06;72.03;100844.75;109291;1255;72635;-62
2024/01/17 22:33:54;;;;;;;15.80;4.80;;;;;;;12.23;73.82;100839.25;109228;1255;72835;-63
2024/01/17 22:36:22;;;;;;;16.20;4.20;;;;;;;12.27;73.54;100831.29;109270;1256;72772;-63
2024/01/17 22:38:51;;;;;;;9.10;4.00;;;;;;;12.22;73.08;100829.07;109203;1255;60150;-64
2024/01/17 22:41:19;;;;;;;11.30;3.90;;;;;;;12.15;72.48;100823.36;109224;1254;58914;-62
2024/01/17 22:43:47;;;;;;;12.80;3.70;;;;;;;12.05;71.94;100810.65;109170;1255;72621;-64
2024/01/17 22:46:15;;;;;;;13.40;3.00;;;;;;;11.96;71.32;100804.80;109196;1255;73293;-63
2024/01/17 22:48:42;;;;;;;10.50;3.80;;;;;;;11.88;70.96;100803.11;109179;1255;72744;-65
2024/01/17 22:51:11;;;;;;;10.90;2.80;;;;;;;11.82;70.75;100796.66;109143;1256;58834;-67
2024/01/17 22:53:39;;;;;;;9.10;3.90;;;;;;;11.76;70.42;100790.95;109013;1255;58889;-62
2024/01/17 22:56:08;;;;;;;9.00;3.40;;;;;;;11.70;69.92;100781.35;109223;1256;73137;-60
2024/01/17 22:58:35;;;;;;;9.40;3.20;;;;;;;11.64;69.55;100771.58;109204;1255;71823;-61
2024/01/17 23:01:04;;;;;;;7.50;2.30;;;;;;;11.58;69.39;100772.54;108992;1256;71515;-61
2024/01/17 23:03:32;;;;;;;5.90;2.40;;;;;;;11.52;69.16;100767.51;108970;1255;60463;-63
2024/01/17 23:06:02;;;;;;;9.80;3.40;;;;;;;11.49;69.01;100762.28;108924;1256;58870;-62
2024/01/17 23:08:29;;;;;;;9.20;3.60;;;;;;;11.47;68.90;100757.90;108869;1256;73944;-62
2024/01/17 23:10:57;;;;;;;6.60;2.80;;;;;;;11.43;68.67;100755.14;108999;1256;71583;-63
2024/01/17 23:13:43;;;;;;;9.60;3.00;;;;;;;11.39;68.68;100745.00;108927;1256;71800;-61
2024/01/17 23:16:11;;;;;;;7.50;2.60;;;;;;;11.36;68.34;100747.66;108967;1256;60133;-63
2024/01/17 23:18:38;;;;;;;9.40;3.10;;;;;;;11.34;68.32;100749.63;108890;1256;59088;-62
2024/01/17 23:21:06;;;;;;;7.10;2.90;;;;;;;11.30;68.07;100743.52;109025;1256;72648;-66
2024/01/17 23:23:34;;;;;;;13.50;3.00;;;;;;;11.25;68.02;100739.52;108987;1256;71597;-62
2024/01/17 23:26:02;;;;;;;11.40;3.30;;;;;;;11.22;68.09;100737.98;108983;1256;70282;-63
2024/01/17 23:28:29;;;;;;;8.00;3.20;;;;;;;11.20;68.10;100743.81;108937;1256;58310;-62
2024/01/17 23:30:57;;;;;;;7.20;2.80;;;;;;;11.18;67.98;100740.14;109058;1256;58851;-63
2024/01/17 23:33:24;;;;;;;7.00;3.00;;;;;;;11.17;68.10;100733.30;108880;1256;73990;-58
2024/01/17 23:35:52;;;;;;;10.40;3.70;;;;;;;11.16;67.91;100724.19;108992;1256;71485;-65
2024/01/17 23:38:21;;;;;;;11.00;3.40;;;;;;;11.13;67.85;100724.74;109042;1255;73171;-62
2024/01/17 23:40:49;;;;;;;7.80;2.90;;;;;;;11.12;67.85;100730.38;109155;1255;58830;-63
2024/01/17 23:43:16;;;;;;;7.40;3.70;;;;;;;11.12;67.90;100731.42;108876;1255;58821;-65